createdAt,value
2017-03-31T00:00:11.177Z,0
2017-03-31T00:00:51.824Z,0
2017-03-31T00:01:32.410Z,0
2017-03-31T00:02:13.104Z,0
2017-03-31T00:02:53.772Z,0
2017-03-31T00:03:34.433Z,0
2017-03-31T00:04:15.021Z,0
2017-03-31T00:04:55.703Z,0
2017-03-31T00:05:36.429Z,0
2017-03-31T00:06:17.143Z,0
2017-03-31T00:06:57.707Z,0
2017-03-31T00:07:38.389Z,0
2017-03-31T00:08:19.143Z,0
2017-03-31T00:08:59.873Z,0
2017-03-31T00:09:40.444Z,0
2017-03-31T00:10:21.211Z,0
2017-03-31T00:11:01.966Z,0
2017-03-31T00:11:42.690Z,0
2017-03-31T00:12:23.324Z,0
2017-03-31T00:13:03.971Z,0
2017-03-31T00:13:44.651Z,0
2017-03-31T00:14:25.295Z,0
2017-03-31T00:15:06.081Z,0
2017-03-31T00:15:46.806Z,0
2017-03-31T00:16:28.477Z,0
2017-03-31T00:17:09.118Z,0
2017-03-31T00:17:49.791Z,0
2017-03-31T00:18:30.446Z,0
2017-03-31T00:19:12.119Z,0
2017-03-31T00:19:52.704Z,0
2017-03-31T00:20:34.432Z,0
2017-03-31T00:21:15.112Z,0
2017-03-31T00:21:56.778Z,0
2017-03-31T00:22:37.364Z,0
2017-03-31T00:23:18.037Z,0
2017-03-31T00:23:58.740Z,0
2017-03-31T00:24:39.378Z,0
2017-03-31T00:25:19.947Z,0
2017-03-31T00:26:00.644Z,0
2017-03-31T00:26:41.382Z,0
2017-03-31T00:27:22.094Z,0
2017-03-31T00:28:02.762Z,0
2017-03-31T00:28:44.423Z,0
2017-03-31T00:29:25.078Z,0
2017-03-31T00:30:05.745Z,0
2017-03-31T00:30:46.381Z,0
2017-03-31T00:31:27.043Z,0
2017-03-31T00:32:09.737Z,0
2017-03-31T00:32:51.414Z,0
2017-03-31T00:33:32.099Z,0
2017-03-31T00:34:12.819Z,0
2017-03-31T00:34:54.482Z,0
2017-03-31T00:35:35.130Z,0
2017-03-31T00:36:17.833Z,0
2017-03-31T00:36:58.496Z,0
2017-03-31T00:37:39.151Z,0
2017-03-31T00:38:20.819Z,0
2017-03-31T00:39:07.685Z,0
2017-03-31T00:39:48.275Z,0
2017-03-31T00:40:29.021Z,0
2017-03-31T00:41:09.604Z,0
2017-03-31T00:42:01.239Z,0
2017-03-31T00:42:46.663Z,0
2017-03-31T00:43:27.300Z,0
2017-03-31T00:44:07.880Z,0
2017-03-31T00:44:49.488Z,0
2017-03-31T00:45:30.169Z,0
2017-03-31T00:46:12.859Z,0
2017-03-31T00:46:53.455Z,0
2017-03-31T00:47:34.137Z,0
2017-03-31T00:48:15.763Z,0
2017-03-31T00:48:56.420Z,0
2017-03-31T00:49:37.021Z,0
2017-03-31T00:50:17.681Z,0
2017-03-31T00:50:58.345Z,0
2017-03-31T00:51:39.005Z,0
2017-03-31T00:52:19.585Z,0
2017-03-31T00:53:00.298Z,0
2017-03-31T00:53:41.892Z,0
2017-03-31T00:54:22.532Z,0
2017-03-31T00:55:03.143Z,0
2017-03-31T00:55:43.804Z,0
2017-03-31T00:56:25.425Z,0
2017-03-31T00:57:06.090Z,0
2017-03-31T00:57:46.732Z,0
2017-03-31T00:58:27.381Z,0
2017-03-31T00:59:09.063Z,0
2017-03-31T00:59:51.792Z,0
2017-03-31T01:00:34.371Z,0
2017-03-31T01:01:16.036Z,0
2017-03-31T01:01:57.714Z,0
2017-03-31T01:02:38.294Z,0
2017-03-31T01:03:19.893Z,0
2017-03-31T01:04:00.491Z,0
2017-03-31T01:04:41.144Z,0
2017-03-31T01:05:21.719Z,0
2017-03-31T01:06:02.413Z,0
2017-03-31T01:06:43.114Z,0
2017-03-31T01:07:23.744Z,0
2017-03-31T01:08:04.306Z,0
2017-03-31T01:08:44.924Z,0
2017-03-31T01:09:25.606Z,0
2017-03-31T01:10:06.255Z,0
2017-03-31T01:10:46.841Z,0
2017-03-31T01:11:28.491Z,0
2017-03-31T01:12:09.133Z,0
2017-03-31T01:12:49.806Z,0
2017-03-31T01:13:30.450Z,0
2017-03-31T01:14:11.143Z,0
2017-03-31T01:14:51.747Z,0
2017-03-31T01:15:32.414Z,0
2017-03-31T01:16:13.056Z,0
2017-03-31T01:16:53.635Z,0
2017-03-31T01:17:34.265Z,0
2017-03-31T01:18:14.917Z,0
2017-03-31T01:18:55.501Z,0
2017-03-31T01:19:36.121Z,0
2017-03-31T01:20:16.775Z,0
2017-03-31T01:20:57.359Z,0
2017-03-31T01:21:39.026Z,0
2017-03-31T01:22:20.719Z,0
2017-03-31T01:23:01.332Z,0
2017-03-31T01:23:41.988Z,0
2017-03-31T01:24:22.659Z,0
2017-03-31T01:25:03.281Z,0
2017-03-31T01:25:43.940Z,0
2017-03-31T01:26:24.610Z,0
2017-03-31T01:27:05.238Z,0
2017-03-31T01:27:45.886Z,0
2017-03-31T01:28:26.513Z,0
2017-03-31T01:29:07.108Z,0
2017-03-31T01:29:47.750Z,0
2017-03-31T01:30:28.373Z,0
2017-03-31T01:31:10.018Z,0
2017-03-31T01:31:51.659Z,0
2017-03-31T01:32:32.340Z,0
2017-03-31T01:33:12.957Z,0
2017-03-31T01:33:53.623Z,0
2017-03-31T01:34:35.321Z,0
2017-03-31T01:35:16.981Z,0
2017-03-31T01:35:59.582Z,0
2017-03-31T01:36:41.356Z,0
2017-03-31T01:37:21.930Z,0
2017-03-31T01:38:03.542Z,0
2017-03-31T01:38:44.244Z,0
2017-03-31T01:39:24.884Z,0
2017-03-31T01:40:05.528Z,0
2017-03-31T01:40:46.174Z,0
2017-03-31T01:41:26.874Z,0
2017-03-31T01:42:07.492Z,0
2017-03-31T01:42:49.169Z,0
2017-03-31T01:43:29.823Z,0
2017-03-31T01:44:10.474Z,0
2017-03-31T01:44:51.127Z,0
2017-03-31T01:45:31.779Z,0
2017-03-31T01:46:12.426Z,0
2017-03-31T01:46:53.088Z,0
2017-03-31T01:47:33.738Z,0
2017-03-31T01:48:14.397Z,0
2017-03-31T01:48:55.057Z,0
2017-03-31T01:49:35.693Z,0
2017-03-31T01:50:16.354Z,0
2017-03-31T01:50:56.995Z,0
2017-03-31T01:51:37.654Z,0
2017-03-31T01:52:18.301Z,0
2017-03-31T01:52:58.950Z,0
2017-03-31T01:53:39.609Z,0
2017-03-31T01:54:20.261Z,0
2017-03-31T01:55:00.911Z,0
2017-03-31T01:55:41.569Z,0
2017-03-31T01:56:22.150Z,0
2017-03-31T01:57:02.720Z,0
2017-03-31T01:57:43.341Z,0
2017-03-31T01:58:23.977Z,0
2017-03-31T01:59:04.556Z,0
2017-03-31T01:59:45.259Z,0
2017-03-31T02:00:25.940Z,0
2017-03-31T02:01:06.580Z,0
2017-03-31T02:01:47.142Z,0
2017-03-31T02:02:27.757Z,0
2017-03-31T02:03:08.458Z,0
2017-03-31T02:03:49.098Z,0
2017-03-31T02:04:29.694Z,0
2017-03-31T02:05:10.395Z,0
2017-03-31T02:05:51.071Z,0
2017-03-31T02:06:31.703Z,0
2017-03-31T02:07:12.364Z,0
2017-03-31T02:07:53.016Z,0
2017-03-31T02:08:33.659Z,0
2017-03-31T02:09:14.334Z,0
2017-03-31T02:09:54.968Z,0
2017-03-31T02:10:35.632Z,0
2017-03-31T02:11:16.234Z,0
2017-03-31T02:11:56.913Z,0
2017-03-31T02:12:37.583Z,0
2017-03-31T02:13:18.239Z,0
2017-03-31T02:13:58.825Z,0
2017-03-31T02:14:39.512Z,0
2017-03-31T02:15:20.209Z,0
2017-03-31T02:16:00.854Z,0
2017-03-31T02:16:41.442Z,0
2017-03-31T02:17:22.055Z,0
2017-03-31T02:18:02.725Z,0
2017-03-31T02:18:43.333Z,0
2017-03-31T02:19:24.027Z,0
2017-03-31T02:20:04.665Z,0
2017-03-31T02:20:45.245Z,0
2017-03-31T02:21:25.887Z,0
2017-03-31T02:22:06.521Z,0
2017-03-31T02:22:47.119Z,0
2017-03-31T02:23:27.737Z,0
2017-03-31T02:24:08.376Z,0
2017-03-31T02:24:48.958Z,0
2017-03-31T02:25:29.580Z,0
2017-03-31T02:26:10.232Z,0
2017-03-31T02:26:50.882Z,0
2017-03-31T02:27:31.538Z,0
2017-03-31T02:28:12.191Z,0
2017-03-31T02:28:52.848Z,0
2017-03-31T02:29:33.498Z,0
2017-03-31T02:30:14.141Z,0
2017-03-31T02:30:54.801Z,0
2017-03-31T02:31:35.373Z,0
2017-03-31T02:32:15.959Z,0
2017-03-31T02:32:56.551Z,0
2017-03-31T02:33:37.202Z,0
2017-03-31T02:34:17.786Z,0
2017-03-31T02:34:58.490Z,0
2017-03-31T02:35:39.183Z,0
2017-03-31T02:36:19.844Z,0
2017-03-31T02:37:00.432Z,0
2017-03-31T02:37:41.036Z,0
2017-03-31T02:38:21.671Z,0
2017-03-31T02:39:02.622Z,0
2017-03-31T02:39:43.282Z,0
2017-03-31T02:40:23.941Z,0
2017-03-31T02:41:04.506Z,0
2017-03-31T02:41:45.150Z,0
2017-03-31T02:42:25.798Z,0
2017-03-31T02:43:06.363Z,0
2017-03-31T02:43:46.966Z,0
2017-03-31T02:44:27.553Z,0
2017-03-31T02:45:08.198Z,0
2017-03-31T02:45:48.776Z,0
2017-03-31T02:46:29.374Z,0
2017-03-31T02:47:09.949Z,0
2017-03-31T02:47:50.606Z,0
2017-03-31T02:48:31.280Z,0
2017-03-31T02:49:11.918Z,0
2017-03-31T02:49:52.574Z,0
2017-03-31T02:50:33.225Z,0
2017-03-31T02:51:13.887Z,0
2017-03-31T02:51:54.537Z,0
2017-03-31T02:52:35.172Z,0
2017-03-31T02:53:15.868Z,0
2017-03-31T02:53:56.482Z,0
2017-03-31T02:54:37.148Z,0
2017-03-31T02:55:18.822Z,0
2017-03-31T02:55:59.482Z,0
2017-03-31T02:56:40.143Z,0
2017-03-31T02:57:20.871Z,0
2017-03-31T02:58:03.471Z,0
2017-03-31T02:58:44.127Z,0
2017-03-31T02:59:24.780Z,0
2017-03-31T03:00:05.434Z,0
2017-03-31T03:00:46.086Z,0
2017-03-31T03:01:26.738Z,0
2017-03-31T03:02:07.309Z,0
2017-03-31T03:02:47.902Z,0
2017-03-31T03:03:28.606Z,0
2017-03-31T03:04:09.242Z,0
2017-03-31T03:04:49.800Z,0
2017-03-31T03:05:30.413Z,0
2017-03-31T03:06:11.015Z,0
2017-03-31T03:06:51.655Z,0
2017-03-31T03:07:32.213Z,0
2017-03-31T03:08:12.860Z,0
2017-03-31T03:08:53.503Z,0
2017-03-31T03:09:34.088Z,0
2017-03-31T03:10:14.727Z,0
2017-03-31T03:10:55.360Z,0
2017-03-31T03:11:35.924Z,0
2017-03-31T03:12:16.584Z,0
2017-03-31T03:12:57.208Z,0
2017-03-31T03:13:37.779Z,0
2017-03-31T03:14:18.391Z,0
2017-03-31T03:14:58.984Z,0
2017-03-31T03:15:39.623Z,0
2017-03-31T03:16:20.196Z,0
2017-03-31T03:17:00.799Z,0
2017-03-31T03:17:41.454Z,0
2017-03-31T03:18:22.125Z,0
2017-03-31T03:19:02.745Z,0
2017-03-31T03:19:43.394Z,0
2017-03-31T03:20:24.061Z,0
2017-03-31T03:21:04.713Z,0
2017-03-31T03:21:45.350Z,0
2017-03-31T03:22:26.058Z,0
2017-03-31T03:23:06.624Z,0
2017-03-31T03:23:47.258Z,0
2017-03-31T03:24:27.914Z,0
2017-03-31T03:25:08.487Z,0
2017-03-31T03:25:49.116Z,0
2017-03-31T03:26:29.759Z,0
2017-03-31T03:27:10.330Z,0
2017-03-31T03:27:50.907Z,0
2017-03-31T03:28:31.521Z,0
2017-03-31T03:29:12.174Z,0
2017-03-31T03:29:52.763Z,0
2017-03-31T03:30:33.339Z,0
2017-03-31T03:31:13.926Z,0
2017-03-31T03:31:54.579Z,0
2017-03-31T03:32:35.147Z,0
2017-03-31T03:33:15.726Z,0
2017-03-31T03:33:56.347Z,0
2017-03-31T03:34:37.013Z,0
2017-03-31T03:35:17.579Z,0
2017-03-31T03:35:58.239Z,0
2017-03-31T03:36:38.843Z,0
2017-03-31T03:37:19.496Z,0
2017-03-31T03:38:00.158Z,0
2017-03-31T03:38:40.809Z,0
2017-03-31T03:39:21.453Z,0
2017-03-31T03:40:02.108Z,0
2017-03-31T03:40:42.752Z,0
2017-03-31T03:41:23.405Z,0
2017-03-31T03:42:04.102Z,0
2017-03-31T03:42:44.727Z,0
2017-03-31T03:43:25.395Z,0
2017-03-31T03:44:06.023Z,0
2017-03-31T03:44:46.677Z,0
2017-03-31T03:45:27.330Z,0
2017-03-31T03:46:07.982Z,0
2017-03-31T03:46:48.628Z,0
2017-03-31T03:47:29.219Z,0
2017-03-31T03:48:09.897Z,0
2017-03-31T03:48:50.493Z,0
2017-03-31T03:49:31.150Z,0
2017-03-31T03:50:11.734Z,0
2017-03-31T03:50:52.391Z,0
2017-03-31T03:51:33.003Z,0
2017-03-31T03:52:13.654Z,0
2017-03-31T03:52:54.299Z,0
2017-03-31T03:53:34.958Z,0
2017-03-31T03:54:15.620Z,0
2017-03-31T03:54:56.256Z,0
2017-03-31T03:55:36.915Z,0
2017-03-31T03:56:17.563Z,0
2017-03-31T03:56:58.143Z,0
2017-03-31T03:57:38.750Z,0
2017-03-31T03:58:19.336Z,0
2017-03-31T03:58:59.986Z,0
2017-03-31T03:59:40.545Z,0
2017-03-31T04:00:21.143Z,0
2017-03-31T04:01:01.744Z,0
2017-03-31T04:01:42.373Z,0
2017-03-31T04:02:23.034Z,0
2017-03-31T04:03:03.687Z,0
2017-03-31T04:03:44.330Z,0
2017-03-31T04:04:24.994Z,0
2017-03-31T04:05:05.640Z,0
2017-03-31T04:05:46.293Z,0
2017-03-31T04:06:26.940Z,0
2017-03-31T04:07:07.516Z,0
2017-03-31T04:07:48.099Z,0
2017-03-31T04:08:28.712Z,0
2017-03-31T04:09:09.462Z,0
2017-03-31T04:09:50.038Z,0
2017-03-31T04:10:30.742Z,0
2017-03-31T04:11:11.433Z,0
2017-03-31T04:11:52.071Z,0
2017-03-31T04:12:32.734Z,0
2017-03-31T04:13:13.391Z,0
2017-03-31T04:13:54.023Z,0
2017-03-31T04:14:34.679Z,0
2017-03-31T04:15:15.329Z,0
2017-03-31T04:15:55.984Z,0
2017-03-31T04:16:36.643Z,0
2017-03-31T04:17:17.298Z,0
2017-03-31T04:17:57.947Z,0
2017-03-31T04:18:38.600Z,0
2017-03-31T04:19:19.252Z,0
2017-03-31T04:19:59.905Z,0
2017-03-31T04:20:40.566Z,0
2017-03-31T04:21:21.218Z,0
2017-03-31T04:22:01.875Z,0
2017-03-31T04:22:42.512Z,0
2017-03-31T04:23:23.167Z,0
2017-03-31T04:24:03.824Z,0
2017-03-31T04:24:44.479Z,0
2017-03-31T04:25:25.130Z,0
2017-03-31T04:26:05.785Z,0
2017-03-31T04:26:46.371Z,0
2017-03-31T04:27:26.972Z,0
2017-03-31T04:28:07.656Z,0
2017-03-31T04:28:48.297Z,0
2017-03-31T04:29:28.947Z,0
2017-03-31T04:30:09.622Z,0
2017-03-31T04:30:50.267Z,0
2017-03-31T04:31:30.905Z,4
2017-03-31T04:32:11.556Z,0
2017-03-31T04:32:52.210Z,0
2017-03-31T04:33:33.878Z,20
2017-03-31T04:34:14.553Z,0
2017-03-31T04:34:55.179Z,0
2017-03-31T04:35:35.841Z,0
2017-03-31T04:36:16.518Z,4
2017-03-31T04:36:57.092Z,4
2017-03-31T04:37:37.702Z,4
2017-03-31T04:38:18.354Z,4
2017-03-31T04:38:58.935Z,4
2017-03-31T04:39:39.572Z,4
2017-03-31T04:40:20.203Z,4
2017-03-31T04:41:02.015Z,4
2017-03-31T04:41:42.728Z,4
2017-03-31T04:42:23.497Z,4
2017-03-31T04:43:04.078Z,4
2017-03-31T04:43:44.719Z,4
2017-03-31T04:44:25.353Z,8
2017-03-31T04:45:05.925Z,4
2017-03-31T04:45:46.556Z,8
2017-03-31T04:46:27.197Z,8
2017-03-31T04:47:07.762Z,12
2017-03-31T04:47:48.360Z,8
2017-03-31T04:48:29.010Z,8
2017-03-31T04:49:09.614Z,12
2017-03-31T04:49:50.198Z,16
2017-03-31T04:50:30.794Z,16
2017-03-31T04:51:11.370Z,16
2017-03-31T04:51:52.021Z,20
2017-03-31T04:52:32.596Z,24
2017-03-31T04:53:13.225Z,20
2017-03-31T04:53:53.870Z,24
2017-03-31T04:54:34.452Z,28
2017-03-31T04:55:15.092Z,32
2017-03-31T04:55:55.735Z,32
2017-03-31T04:56:36.309Z,36
2017-03-31T04:57:16.960Z,40
2017-03-31T04:57:57.593Z,44
2017-03-31T04:58:38.260Z,48
2017-03-31T04:59:18.898Z,52
2017-03-31T04:59:59.568Z,52
2017-03-31T05:00:40.226Z,60
2017-03-31T05:01:20.872Z,64
2017-03-31T05:02:01.505Z,72
2017-03-31T05:02:42.084Z,76
2017-03-31T05:03:22.690Z,80
2017-03-31T05:04:03.363Z,84
2017-03-31T05:04:44.025Z,88
2017-03-31T05:05:24.619Z,96
2017-03-31T05:06:05.277Z,104
2017-03-31T05:06:45.871Z,108
2017-03-31T05:07:26.525Z,116
2017-03-31T05:08:07.300Z,128
2017-03-31T05:08:48.002Z,132
2017-03-31T05:09:28.733Z,144
2017-03-31T05:10:09.341Z,156
2017-03-31T05:10:49.938Z,168
2017-03-31T05:11:30.617Z,180
2017-03-31T05:12:11.190Z,192
2017-03-31T05:12:51.868Z,204
2017-03-31T05:13:32.514Z,220
2017-03-31T05:14:13.183Z,236
2017-03-31T05:14:53.827Z,252
2017-03-31T05:15:34.467Z,268
2017-03-31T05:16:15.107Z,284
2017-03-31T05:16:55.777Z,304
2017-03-31T05:17:36.419Z,320
2017-03-31T05:18:16.999Z,340
2017-03-31T05:18:57.691Z,360
2017-03-31T05:19:38.282Z,380
2017-03-31T05:20:18.928Z,400
2017-03-31T05:20:59.489Z,416
2017-03-31T05:21:40.077Z,440
2017-03-31T05:22:20.694Z,460
2017-03-31T05:23:01.328Z,480
2017-03-31T05:23:42.019Z,504
2017-03-31T05:24:22.643Z,524
2017-03-31T05:25:03.299Z,548
2017-03-31T05:25:43.933Z,572
2017-03-31T05:26:24.598Z,592
2017-03-31T05:27:05.162Z,616
2017-03-31T05:27:45.873Z,640
2017-03-31T05:28:26.572Z,660
2017-03-31T05:29:07.199Z,688
2017-03-31T05:29:47.778Z,708
2017-03-31T05:30:28.353Z,736
2017-03-31T05:31:09.003Z,764
2017-03-31T05:31:49.609Z,788
2017-03-31T05:32:30.204Z,812
2017-03-31T05:33:10.836Z,836
2017-03-31T05:33:51.461Z,864
2017-03-31T05:34:32.046Z,896
2017-03-31T05:35:12.690Z,920
2017-03-31T05:35:53.335Z,952
2017-03-31T05:36:33.906Z,976
2017-03-31T05:37:14.524Z,1008
2017-03-31T05:37:55.186Z,1036
2017-03-31T05:38:35.844Z,1060
2017-03-31T05:39:16.491Z,1080
2017-03-31T05:39:57.136Z,1116
2017-03-31T05:40:37.806Z,1144
2017-03-31T05:41:18.447Z,1176
2017-03-31T05:41:59.102Z,1204
2017-03-31T05:42:39.756Z,1232
2017-03-31T05:43:20.440Z,1260
2017-03-31T05:44:01.059Z,1296
2017-03-31T05:44:41.715Z,1332
2017-03-31T05:45:22.372Z,1352
2017-03-31T05:46:03.017Z,1388
2017-03-31T05:46:43.671Z,1420
2017-03-31T05:47:24.322Z,1456
2017-03-31T05:48:04.966Z,1488
2017-03-31T05:48:45.622Z,1520
2017-03-31T05:49:26.281Z,1560
2017-03-31T05:50:06.934Z,1604
2017-03-31T05:50:47.514Z,1644
2017-03-31T05:51:28.087Z,1676
2017-03-31T05:52:08.749Z,1704
2017-03-31T05:52:49.394Z,1740
2017-03-31T05:53:30.061Z,1784
2017-03-31T05:54:10.721Z,1832
2017-03-31T05:54:51.359Z,1880
2017-03-31T05:55:32.004Z,1932
2017-03-31T05:56:12.670Z,1980
2017-03-31T05:56:53.322Z,2044
2017-03-31T05:57:34.016Z,2080
2017-03-31T05:58:14.664Z,2124
2017-03-31T05:58:55.318Z,2172
2017-03-31T05:59:35.965Z,2216
2017-03-31T06:00:16.619Z,2256
2017-03-31T06:00:57.282Z,2308
2017-03-31T06:01:37.935Z,2352
2017-03-31T06:02:18.578Z,2392
2017-03-31T06:02:59.236Z,2428
2017-03-31T06:03:39.904Z,2472
2017-03-31T06:04:20.552Z,2508
2017-03-31T06:05:02.218Z,2548
2017-03-31T06:05:42.878Z,2584
2017-03-31T06:06:23.539Z,2608
2017-03-31T06:07:04.177Z,2648
2017-03-31T06:07:45.234Z,2680
2017-03-31T06:08:27.850Z,2712
2017-03-31T06:09:08.476Z,2776
2017-03-31T06:09:49.137Z,2772
2017-03-31T06:10:29.803Z,2788
2017-03-31T06:11:11.698Z,2832
2017-03-31T06:11:52.349Z,2864
2017-03-31T06:12:32.952Z,2892
2017-03-31T06:13:13.569Z,2924
2017-03-31T06:13:54.609Z,2956
2017-03-31T06:14:35.198Z,2972
2017-03-31T06:15:16.847Z,2996
2017-03-31T06:15:57.426Z,3036
2017-03-31T06:16:38.023Z,3056
2017-03-31T06:17:18.694Z,3080
2017-03-31T06:17:59.268Z,3108
2017-03-31T06:18:39.952Z,3128
2017-03-31T06:19:20.603Z,3148
2017-03-31T06:20:01.204Z,3148
2017-03-31T06:20:41.758Z,3172
2017-03-31T06:21:22.360Z,3184
2017-03-31T06:22:02.960Z,3204
2017-03-31T06:22:44.636Z,3224
2017-03-31T06:23:25.228Z,3240
2017-03-31T06:24:05.943Z,3256
2017-03-31T06:24:46.596Z,3280
2017-03-31T06:25:27.246Z,3304
2017-03-31T06:26:07.823Z,3328
2017-03-31T06:26:48.488Z,3352
2017-03-31T06:27:29.113Z,3368
2017-03-31T06:28:09.761Z,3388
2017-03-31T06:28:50.404Z,3424
2017-03-31T06:29:31.072Z,3440
2017-03-31T06:30:11.714Z,3460
2017-03-31T06:30:52.367Z,3484
2017-03-31T06:31:33.034Z,3500
2017-03-31T06:32:13.670Z,3528
2017-03-31T06:32:54.231Z,3532
2017-03-31T06:33:34.823Z,3544
2017-03-31T06:34:15.416Z,3560
2017-03-31T06:34:57.092Z,3572
2017-03-31T06:35:37.662Z,3616
2017-03-31T06:36:18.274Z,3640
2017-03-31T06:36:58.871Z,3700
2017-03-31T06:37:39.509Z,3696
2017-03-31T06:38:20.155Z,3724
2017-03-31T06:39:00.875Z,3756
2017-03-31T06:39:41.492Z,3772
2017-03-31T06:40:22.124Z,3820
2017-03-31T06:41:02.765Z,3828
2017-03-31T06:41:43.428Z,3876
2017-03-31T06:42:24.009Z,3892
2017-03-31T06:43:04.628Z,3936
2017-03-31T06:43:45.289Z,3940
2017-03-31T06:44:25.849Z,3988
2017-03-31T06:45:06.526Z,4012
2017-03-31T06:45:47.139Z,4036
2017-03-31T06:46:27.727Z,4060
2017-03-31T06:47:08.339Z,4076
2017-03-31T06:47:49.105Z,4076
2017-03-31T06:48:29.687Z,4108
2017-03-31T06:49:10.356Z,4128
2017-03-31T06:49:50.966Z,4148
2017-03-31T06:50:31.606Z,4172
2017-03-31T06:51:12.321Z,4204
2017-03-31T06:51:52.981Z,4236
2017-03-31T06:52:33.587Z,4244
2017-03-31T06:53:14.164Z,4308
2017-03-31T06:53:54.766Z,4344
2017-03-31T06:54:35.343Z,4384
2017-03-31T06:55:15.971Z,4424
2017-03-31T06:55:56.694Z,4460
2017-03-31T06:56:38.306Z,4468
2017-03-31T06:57:18.902Z,4624
2017-03-31T06:57:59.501Z,4456
2017-03-31T06:58:40.159Z,4520
2017-03-31T06:59:20.811Z,4556
2017-03-31T07:00:01.462Z,4600
2017-03-31T07:00:42.130Z,4604
2017-03-31T07:01:22.753Z,4600
2017-03-31T07:02:03.432Z,4588
2017-03-31T07:02:44.081Z,4696
2017-03-31T07:03:24.733Z,4656
2017-03-31T07:04:05.485Z,4656
2017-03-31T07:04:46.145Z,4688
2017-03-31T07:05:26.829Z,4708
2017-03-31T07:06:07.444Z,4764
2017-03-31T07:06:48.106Z,4700
2017-03-31T07:07:28.750Z,4700
2017-03-31T07:08:09.402Z,4708
2017-03-31T07:08:50.049Z,4748
2017-03-31T07:09:30.702Z,4772
2017-03-31T07:10:12.386Z,4804
2017-03-31T07:10:53.037Z,4856
2017-03-31T07:11:33.687Z,4876
2017-03-31T07:12:14.303Z,4908
2017-03-31T07:12:54.945Z,4948
2017-03-31T07:13:35.543Z,4996
2017-03-31T07:14:16.200Z,5032
2017-03-31T07:14:56.804Z,5052
2017-03-31T07:15:37.476Z,5132
2017-03-31T07:16:18.062Z,5116
2017-03-31T07:16:58.705Z,5096
2017-03-31T07:17:39.359Z,5124
2017-03-31T07:18:20.017Z,5164
2017-03-31T07:19:00.679Z,5388
2017-03-31T07:19:41.318Z,5076
2017-03-31T07:20:21.976Z,5128
2017-03-31T07:21:02.634Z,5096
2017-03-31T07:21:44.302Z,5084
2017-03-31T07:22:24.877Z,5096
2017-03-31T07:23:05.492Z,5148
2017-03-31T07:23:46.219Z,5076
2017-03-31T07:24:26.819Z,5028
2017-03-31T07:25:07.443Z,5016
2017-03-31T07:25:48.093Z,4992
2017-03-31T07:26:28.784Z,4988
2017-03-31T07:27:09.413Z,4960
2017-03-31T07:27:49.978Z,4900
2017-03-31T07:28:30.582Z,4900
2017-03-31T07:29:11.172Z,4888
2017-03-31T07:29:51.744Z,4892
2017-03-31T07:30:36.943Z,4892
2017-03-31T07:31:17.517Z,4876
2017-03-31T07:31:58.106Z,4808
2017-03-31T07:32:38.684Z,4760
2017-03-31T07:33:19.293Z,4796
2017-03-31T07:33:59.858Z,4736
2017-03-31T07:34:40.792Z,4732
2017-03-31T07:35:21.401Z,4752
2017-03-31T07:36:01.997Z,4760
2017-03-31T07:36:42.572Z,4736
2017-03-31T07:37:23.177Z,4668
2017-03-31T07:38:03.761Z,4672
2017-03-31T07:38:44.357Z,4676
2017-03-31T07:39:24.952Z,4628
2017-03-31T07:40:05.531Z,4596
2017-03-31T07:40:46.115Z,4536
2017-03-31T07:41:26.691Z,4568
2017-03-31T07:42:08.287Z,4544
2017-03-31T07:42:49.863Z,4544
2017-03-31T07:43:30.509Z,4576
2017-03-31T07:44:11.115Z,4588
2017-03-31T07:44:52.701Z,4648
2017-03-31T07:45:33.405Z,4612
2017-03-31T07:46:15.034Z,4624
2017-03-31T07:47:00.443Z,4688
2017-03-31T07:47:41.047Z,4660
2017-03-31T07:48:21.749Z,4692
2017-03-31T07:49:02.461Z,4724
2017-03-31T07:49:43.322Z,4728
2017-03-31T07:50:23.913Z,4724
2017-03-31T07:51:04.539Z,4844
2017-03-31T07:51:45.105Z,4832
2017-03-31T07:52:25.827Z,4852
2017-03-31T07:53:06.562Z,4896
2017-03-31T07:53:47.187Z,4892
2017-03-31T07:54:27.830Z,4996
2017-03-31T07:55:08.522Z,5004
2017-03-31T07:55:49.140Z,4976
2017-03-31T07:56:29.789Z,4960
2017-03-31T07:57:10.445Z,4992
2017-03-31T07:57:52.469Z,5028
2017-03-31T07:58:33.636Z,5124
2017-03-31T07:59:16.481Z,5172
2017-03-31T07:59:57.305Z,5236
2017-03-31T08:00:38.124Z,5200
2017-03-31T08:01:19.782Z,5128
2017-03-31T08:02:00.403Z,4992
2017-03-31T08:02:41.072Z,4924
2017-03-31T08:03:21.680Z,4964
2017-03-31T08:04:02.284Z,5144
2017-03-31T08:04:42.957Z,5252
2017-03-31T08:05:23.603Z,5332
2017-03-31T08:06:04.178Z,5476
2017-03-31T08:06:44.804Z,5380
2017-03-31T08:07:25.553Z,5484
2017-03-31T08:08:06.514Z,5468
2017-03-31T08:08:47.729Z,5480
2017-03-31T08:09:28.635Z,5504
2017-03-31T08:10:09.454Z,5488
2017-03-31T08:10:50.126Z,5528
2017-03-31T08:11:30.900Z,5584
2017-03-31T08:12:11.477Z,5492
2017-03-31T08:12:53.093Z,5564
2017-03-31T08:13:34.700Z,5584
2017-03-31T08:14:15.381Z,5568
2017-03-31T08:14:55.966Z,5452
2017-03-31T08:15:37.533Z,5364
2017-03-31T08:16:18.121Z,5500
2017-03-31T08:16:58.688Z,5528
2017-03-31T08:17:39.337Z,5552
2017-03-31T08:18:19.934Z,5616
2017-03-31T08:19:00.503Z,5640
2017-03-31T08:19:41.068Z,5640
2017-03-31T08:20:21.656Z,5652
2017-03-31T08:21:02.299Z,5688
2017-03-31T08:21:42.889Z,5720
2017-03-31T08:22:23.477Z,5620
2017-03-31T08:23:04.055Z,5600
2017-03-31T08:23:44.617Z,5648
2017-03-31T08:24:25.192Z,5624
2017-03-31T08:25:05.807Z,5676
2017-03-31T08:25:46.408Z,5680
2017-03-31T08:26:26.965Z,5680
2017-03-31T08:27:07.553Z,5784
2017-03-31T08:27:48.122Z,5864
2017-03-31T08:28:28.707Z,5980
2017-03-31T08:29:09.287Z,5944
2017-03-31T08:29:49.862Z,5992
2017-03-31T08:30:30.444Z,5972
2017-03-31T08:31:11.011Z,5980
2017-03-31T08:31:51.570Z,6056
2017-03-31T08:32:32.169Z,6132
2017-03-31T08:33:12.748Z,6176
2017-03-31T08:33:53.320Z,6184
2017-03-31T08:34:33.961Z,6208
2017-03-31T08:35:14.526Z,6272
2017-03-31T08:35:55.107Z,6312
2017-03-31T08:36:35.695Z,6376
2017-03-31T08:37:16.270Z,6400
2017-03-31T08:37:56.862Z,6440
2017-03-31T08:38:37.444Z,6464
2017-03-31T08:39:18.020Z,6476
2017-03-31T08:39:58.604Z,6432
2017-03-31T08:40:39.205Z,6272
2017-03-31T08:41:19.823Z,6440
2017-03-31T08:42:00.406Z,6296
2017-03-31T08:42:40.988Z,6392
2017-03-31T08:43:21.552Z,6404
2017-03-31T08:44:02.124Z,6372
2017-03-31T08:44:42.698Z,6352
2017-03-31T08:45:23.281Z,6260
2017-03-31T08:46:03.851Z,6232
2017-03-31T08:46:44.429Z,6292
2017-03-31T08:47:25.038Z,6308
2017-03-31T08:48:05.616Z,6584
2017-03-31T08:48:46.187Z,6416
2017-03-31T08:49:26.790Z,6344
2017-03-31T08:50:07.352Z,6236
2017-03-31T08:50:47.942Z,6192
2017-03-31T08:51:28.547Z,6216
2017-03-31T08:52:10.128Z,6232
2017-03-31T08:52:50.695Z,6352
2017-03-31T08:53:31.284Z,6276
2017-03-31T08:54:11.872Z,6292
2017-03-31T08:54:52.436Z,6316
2017-03-31T08:55:33.012Z,6324
2017-03-31T08:56:13.600Z,6328
2017-03-31T08:56:54.166Z,6476
2017-03-31T08:57:34.739Z,6420
2017-03-31T08:58:15.334Z,6536
2017-03-31T08:58:55.926Z,6568
2017-03-31T08:59:36.494Z,6628
2017-03-31T09:00:17.081Z,6684
2017-03-31T09:00:57.681Z,6768
2017-03-31T09:01:38.268Z,6896
2017-03-31T09:02:18.827Z,7084
2017-03-31T09:02:59.407Z,7240
2017-03-31T09:03:39.970Z,7348
2017-03-31T09:04:20.553Z,7412
2017-03-31T09:05:01.124Z,7468
2017-03-31T09:05:41.754Z,7468
2017-03-31T09:06:22.334Z,7500
2017-03-31T09:07:02.908Z,7516
2017-03-31T09:07:43.476Z,7624
2017-03-31T09:08:24.045Z,7624
2017-03-31T09:09:04.612Z,7568
2017-03-31T09:09:45.201Z,7624
2017-03-31T09:10:25.767Z,7700
2017-03-31T09:11:06.340Z,7740
2017-03-31T09:11:46.967Z,7732
2017-03-31T09:12:27.528Z,7724
2017-03-31T09:13:08.094Z,7708
2017-03-31T09:13:48.667Z,7700
2017-03-31T09:14:29.272Z,7508
2017-03-31T09:15:09.826Z,7616
2017-03-31T09:15:50.422Z,7568
2017-03-31T09:16:31.009Z,7592
2017-03-31T09:17:11.594Z,7620
2017-03-31T09:17:52.159Z,7620
2017-03-31T09:18:32.722Z,7568
2017-03-31T09:19:13.294Z,7544
2017-03-31T09:19:53.890Z,7676
2017-03-31T09:20:34.480Z,7696
2017-03-31T09:21:15.047Z,7624
2017-03-31T09:21:55.641Z,7692
2017-03-31T09:22:36.197Z,7724
2017-03-31T09:23:16.806Z,7836
2017-03-31T09:23:57.686Z,7780
2017-03-31T09:24:38.371Z,7764
2017-03-31T09:25:19.015Z,7880
2017-03-31T09:25:59.668Z,7732
2017-03-31T09:26:40.320Z,7612
2017-03-31T09:27:20.898Z,7624
2017-03-31T09:28:01.529Z,7608
2017-03-31T09:28:42.172Z,7692
2017-03-31T09:29:22.850Z,7684
2017-03-31T09:30:03.433Z,7808
2017-03-31T09:30:44.122Z,7784
2017-03-31T09:31:24.786Z,7776
2017-03-31T09:32:05.459Z,7760
2017-03-31T09:32:46.024Z,7776
2017-03-31T09:33:26.616Z,7828